createdAt,value
2023-03-28T00:01:10.825Z,3.10
2023-03-28T00:03:40.537Z,2.70
2023-03-28T00:06:13.974Z,3.30
2023-03-28T00:08:42.437Z,2.70
2023-03-28T00:11:19.624Z,2.80
2023-03-28T00:13:58.327Z,2.70
2023-03-28T00:16:37.313Z,2.90
2023-03-28T00:19:11.834Z,2.70
2023-03-28T00:21:47.057Z,2.90
2023-03-28T00:24:18.030Z,2.70
2023-03-28T00:26:49.540Z,2.80
2023-03-28T00:29:21.426Z,3.40
2023-03-28T00:31:51.105Z,2.90
2023-03-28T00:34:19.371Z,1.90
2023-03-28T00:36:47.524Z,1.90
2023-03-28T00:42:43.571Z,2.30
2023-03-28T00:45:12.498Z,2.80
2023-03-28T00:47:53.112Z,2.90
2023-03-28T00:50:28.190Z,2.30
2023-03-28T00:53:10.213Z,2.40
2023-03-28T00:55:51.749Z,2.10
2023-03-28T00:58:31.192Z,2.20
2023-03-28T01:00:59.566Z,2.20
2023-03-28T01:03:34.782Z,2.70
2023-03-28T01:06:04.888Z,3.30
2023-03-28T01:08:37.942Z,3.10
2023-03-28T01:11:12.638Z,2.80
2023-03-28T01:13:46.235Z,2.50
2023-03-28T01:16:15.535Z,2.50
2023-03-28T01:18:51.639Z,2.70
2023-03-28T01:22:01.313Z,2.50
2023-03-28T01:25:06.188Z,2.50
2023-03-28T01:28:08.154Z,2.80
2023-03-28T01:37:17.944Z,3.00
2023-03-28T01:40:13.929Z,2.30
2023-03-28T01:42:53.487Z,2.40
2023-03-28T01:51:57.431Z,1.90
2023-03-28T01:54:31.095Z,1.80
2023-03-28T01:57:10.592Z,1.40
2023-03-28T01:59:40.394Z,1.50
2023-03-28T02:02:13.167Z,1.80
2023-03-28T02:04:42.212Z,1.60
2023-03-28T02:07:11.782Z,1.70
2023-03-28T02:09:43.195Z,1.20
2023-03-28T02:12:17.219Z,1.60
2023-03-28T02:14:46.958Z,1.70
2023-03-28T02:17:16.528Z,1.70
2023-03-28T02:19:50.578Z,1.70
2023-03-28T02:22:27.115Z,2.20
2023-03-28T02:24:56.497Z,1.90
2023-03-28T02:27:24.483Z,1.40
2023-03-28T02:29:54.713Z,2.10
2023-03-28T02:32:23.937Z,1.90
2023-03-28T02:34:54.107Z,2.00
2023-03-28T02:37:54.865Z,2.20
2023-03-28T02:41:01.788Z,2.50
2023-03-28T02:44:04.627Z,2.40
2023-03-28T02:47:00.081Z,2.20
2023-03-28T02:49:50.938Z,2.10
2023-03-28T02:52:40.884Z,2.30
2023-03-28T02:55:21.753Z,2.10
2023-03-28T02:57:55.240Z,2.10
2023-03-28T03:00:23.980Z,1.80
2023-03-28T03:02:52.571Z,1.80
2023-03-28T03:05:22.168Z,1.90
2023-03-28T03:07:51.673Z,1.90
2023-03-28T03:10:22.179Z,1.80
2023-03-28T03:12:50.684Z,2.10
2023-03-28T03:15:18.781Z,2.00
2023-03-28T03:17:47.249Z,2.20
2023-03-28T03:20:15.281Z,2.30
2023-03-28T03:22:43.401Z,2.30
2023-03-28T03:25:14.316Z,1.90
2023-03-28T03:27:42.776Z,1.70
2023-03-28T03:30:12.181Z,2.10
2023-03-28T03:32:40.197Z,2.10
2023-03-28T03:35:08.428Z,1.90
2023-03-28T03:37:36.587Z,2.20
2023-03-28T03:40:08.368Z,1.60
2023-03-28T03:42:37.265Z,1.90
2023-03-28T03:45:06.313Z,1.90
2023-03-28T03:47:35.690Z,2.20
2023-03-28T03:50:04.238Z,1.80
2023-03-28T03:52:32.178Z,1.90
2023-03-28T03:55:00.288Z,1.90
2023-03-28T03:57:28.377Z,1.90
2023-03-28T03:59:57.440Z,1.80
2023-03-28T04:02:26.562Z,1.80
2023-03-28T04:04:54.833Z,1.70
2023-03-28T04:07:22.819Z,1.80
2023-03-28T04:09:50.823Z,2.10
2023-03-28T04:12:18.792Z,1.90
2023-03-28T04:14:46.852Z,2.10
2023-03-28T04:17:16.298Z,1.80
2023-03-28T04:19:46.008Z,1.50
2023-03-28T04:22:14.096Z,2.10
2023-03-28T04:24:44.791Z,2.00
2023-03-28T04:27:12.961Z,1.80
2023-03-28T04:29:41.991Z,2.00
2023-03-28T04:32:11.497Z,1.70
2023-03-28T04:34:39.421Z,1.70
2023-03-28T04:37:09.365Z,2.00
2023-03-28T04:39:37.418Z,2.60
2023-03-28T04:42:06.277Z,2.20
2023-03-28T04:44:36.725Z,1.80
2023-03-28T04:47:04.852Z,1.70
2023-03-28T04:49:32.884Z,2.10
2023-03-28T04:52:01.229Z,2.00
2023-03-28T04:54:29.210Z,2.00
2023-03-28T04:56:57.293Z,2.20
2023-03-28T04:59:25.425Z,2.00
2023-03-28T05:01:53.533Z,2.40
2023-03-28T05:04:23.757Z,2.20
2023-03-28T05:06:51.801Z,1.90
2023-03-28T05:09:19.859Z,1.60
2023-03-28T05:11:47.956Z,1.70
2023-03-28T05:14:15.995Z,1.80
2023-03-28T05:16:43.999Z,1.70
2023-03-28T05:19:12.025Z,2.00
2023-03-28T05:21:41.314Z,2.10
2023-03-28T05:24:09.473Z,2.30
2023-03-28T05:26:37.857Z,2.50
2023-03-28T05:29:06.709Z,2.40
2023-03-28T05:31:34.880Z,2.80
2023-03-28T05:34:02.947Z,2.40
2023-03-28T05:36:31.512Z,2.40
2023-03-28T05:38:59.495Z,3.10
2023-03-28T05:41:28.286Z,3.00
2023-03-28T05:43:56.250Z,2.90
2023-03-28T05:46:24.170Z,3.00
2023-03-28T05:48:52.095Z,3.40
2023-03-28T05:51:20.159Z,3.10
2023-03-28T05:54:06.764Z,3.20
2023-03-28T05:56:37.373Z,3.50
2023-03-28T05:59:05.466Z,3.20
2023-03-28T06:01:35.083Z,3.60
2023-03-28T06:10:26.626Z,3.80
2023-03-28T06:12:54.548Z,3.20
2023-03-28T06:15:22.777Z,3.00
2023-03-28T06:17:50.906Z,3.40
2023-03-28T06:20:18.939Z,3.00
2023-03-28T06:22:47.209Z,3.20
2023-03-28T06:25:15.522Z,4.00
2023-03-28T06:27:43.388Z,3.20
2023-03-28T06:30:13.219Z,3.60
2023-03-28T06:32:41.277Z,3.30
2023-03-28T06:35:09.626Z,4.20
2023-03-28T06:37:37.626Z,3.00
2023-03-28T06:40:06.421Z,3.10
2023-03-28T06:42:34.568Z,2.90
2023-03-28T06:45:02.882Z,2.90
2023-03-28T06:47:30.924Z,2.90
2023-03-28T06:49:59.027Z,3.10
2023-03-28T06:52:27.136Z,3.10
2023-03-28T06:54:55.201Z,2.90
2023-03-28T06:57:23.321Z,3.20
2023-03-28T06:59:52.602Z,2.80
2023-03-28T07:02:20.914Z,3.00
2023-03-28T07:04:49.041Z,3.00
2023-03-28T07:07:16.918Z,3.20
2023-03-28T07:09:45.120Z,2.80
2023-03-28T07:12:12.997Z,3.10
2023-03-28T07:14:44.574Z,3.10
2023-03-28T07:17:12.502Z,2.60
2023-03-28T07:19:40.658Z,3.00
2023-03-28T07:22:09.417Z,2.70
2023-03-28T07:24:37.478Z,2.70
2023-03-28T07:29:37.635Z,2.70
2023-03-28T07:32:08.603Z,2.70
2023-03-28T07:34:36.539Z,2.40
2023-03-28T07:37:05.402Z,2.10
2023-03-28T07:39:34.672Z,2.20
2023-03-28T07:42:02.628Z,2.30
2023-03-28T07:44:30.779Z,2.60
2023-03-28T07:46:59.238Z,2.60
2023-03-28T07:49:46.125Z,2.70
2023-03-28T07:52:14.608Z,2.30
2023-03-28T07:54:42.831Z,2.50
2023-03-28T07:57:10.975Z,2.50
2023-03-28T07:59:39.292Z,2.50
2023-03-28T08:02:07.515Z,2.80
2023-03-28T08:04:35.621Z,3.20
2023-03-28T08:07:03.472Z,3.40
2023-03-28T08:09:31.823Z,3.00
2023-03-28T08:11:59.950Z,3.30
2023-03-28T08:14:28.157Z,3.10
2023-03-28T08:16:59.133Z,2.90
2023-03-28T08:19:27.041Z,3.10
2023-03-28T08:21:54.966Z,3.40
2023-03-28T08:24:34.950Z,2.90
2023-03-28T08:27:04.876Z,2.90
2023-03-28T08:29:33.012Z,2.70
2023-03-28T08:32:01.007Z,2.60
2023-03-28T08:34:28.948Z,2.40
2023-03-28T08:36:57.746Z,3.00
2023-03-28T08:39:26.381Z,3.60
2023-03-28T08:42:31.992Z,3.70
2023-03-28T08:45:29.247Z,3.90
2023-03-28T08:48:11.835Z,2.30
2023-03-28T08:50:55.532Z,2.30
2023-03-28T08:53:35.180Z,2.30
2023-03-28T08:56:07.148Z,2.10
2023-03-28T08:58:58.208Z,1.90
2023-03-28T09:01:29.381Z,1.70
2023-03-28T09:03:57.583Z,2.00
2023-03-28T09:06:41.169Z,2.00
2023-03-28T09:09:16.300Z,1.60
2023-03-28T09:11:55.779Z,1.50
2023-03-28T09:14:41.899Z,1.60
2023-03-28T09:17:39.271Z,1.50
2023-03-28T09:20:57.681Z,1.50
2023-03-28T09:24:16.649Z,1.30
2023-03-28T09:26:57.825Z,1.50
2023-03-28T09:29:26.101Z,1.70
2023-03-28T09:32:06.333Z,1.40
2023-03-28T09:34:47.926Z,1.40
2023-03-28T09:37:41.913Z,1.50
2023-03-28T09:40:32.108Z,1.60
2023-03-28T09:43:34.556Z,1.50
2023-03-28T09:46:09.552Z,1.50
2023-03-28T09:48:39.201Z,1.50
2023-03-28T09:51:15.163Z,1.40
2023-03-28T09:53:43.724Z,1.30
2023-03-28T09:56:44.471Z,1.50
2023-03-28T09:59:28.364Z,1.70
2023-03-28T10:01:58.139Z,1.70
2023-03-28T10:04:29.183Z,1.60
2023-03-28T10:07:29.593Z,1.60
2023-03-28T10:09:59.224Z,1.60
2023-03-28T10:12:37.844Z,1.80
2023-03-28T10:15:08.957Z,1.60
2023-03-28T10:17:37.624Z,1.30
2023-03-28T10:20:23.879Z,1.60
2023-03-28T10:22:55.010Z,1.80
2023-03-28T10:25:51.444Z,1.80
2023-03-28T10:28:31.876Z,2.20
2023-03-28T10:31:01.975Z,2.20
2023-03-28T10:33:42.775Z,2.30
2023-03-28T10:36:12.834Z,2.40
2023-03-28T10:38:44.251Z,1.90
2023-03-28T10:41:27.287Z,2.20
2023-03-28T10:43:57.030Z,2.10
2023-03-28T10:46:35.855Z,2.00
2023-03-28T10:49:14.151Z,1.70
2023-03-28T10:51:43.182Z,2.00
2023-03-28T10:54:32.291Z,2.60
2023-03-28T10:57:25.336Z,2.30
2023-03-28T11:00:14.236Z,2.50
2023-03-28T11:02:52.194Z,2.40
2023-03-28T11:05:42.697Z,1.70
2023-03-28T11:08:53.283Z,2.10
2023-03-28T11:11:54.371Z,2.10
2023-03-28T11:14:51.494Z,2.40
2023-03-28T11:18:10.616Z,2.00
2023-03-28T11:21:05.693Z,2.10
2023-03-28T11:23:55.461Z,1.90
2023-03-28T11:26:31.212Z,2.00
2023-03-28T11:29:19.859Z,2.10
2023-03-28T11:32:00.467Z,1.80
2023-03-28T11:34:43.443Z,2.10
2023-03-28T11:37:23.545Z,2.10
2023-03-28T11:40:09.576Z,2.40
2023-03-28T11:42:49.755Z,1.90
2023-03-28T11:45:51.902Z,2.20
2023-03-28T11:49:00.971Z,2.30
2023-03-28T11:51:34.415Z,2.20
2023-03-28T11:54:22.724Z,1.90
2023-03-28T11:57:14.911Z,1.90
2023-03-28T11:59:56.136Z,2.00
2023-03-28T12:02:30.245Z,2.00
2023-03-28T12:05:22.927Z,1.60
2023-03-28T12:07:53.224Z,1.80
2023-03-28T12:10:29.193Z,1.60
2023-03-28T12:13:16.398Z,1.50
2023-03-28T12:15:48.376Z,2.20
2023-03-28T12:18:32.060Z,1.90
2023-03-28T12:21:21.776Z,1.40
2023-03-28T12:24:02.131Z,1.40
2023-03-28T12:26:58.213Z,1.50
2023-03-28T12:30:26.769Z,1.30
2023-03-28T12:33:23.589Z,1.60
2023-03-28T12:36:18.494Z,1.50
2023-03-28T12:39:17.751Z,1.60
2023-03-28T12:41:46.288Z,2.20
2023-03-28T12:44:25.090Z,2.10
2023-03-28T12:47:16.513Z,1.60
2023-03-28T12:49:49.907Z,1.40
2023-03-28T12:52:27.953Z,2.20
2023-03-28T12:55:02.232Z,2.30
2023-03-28T12:57:45.299Z,1.60
2023-03-28T13:01:08.471Z,1.50
2023-03-28T13:04:01.582Z,1.60
2023-03-28T13:07:01.250Z,1.60
2023-03-28T13:10:36.244Z,1.80
2023-03-28T13:13:34.823Z,1.20
2023-03-28T13:16:26.782Z,1.40
2023-03-28T13:19:07.708Z,1.70
2023-03-28T13:24:26.795Z,1.50
2023-03-28T13:27:14.337Z,2.80
2023-03-28T13:29:52.593Z,1.50
2023-03-28T13:32:25.366Z,1.60
2023-03-28T13:37:43.198Z,2.00
2023-03-28T13:40:44.279Z,1.50
2023-03-28T13:43:33.872Z,1.30
2023-03-28T13:46:17.313Z,1.50
2023-03-28T13:49:09.905Z,1.30
2023-03-28T13:51:55.583Z,1.70
2023-03-28T13:54:25.083Z,1.40
2023-03-28T13:56:53.414Z,1.60
2023-03-28T13:59:32.034Z,2.40
2023-03-28T14:02:02.169Z,1.50
2023-03-28T14:04:35.150Z,1.60
2023-03-28T14:07:03.594Z,2.40
2023-03-28T14:09:34.534Z,2.20
2023-03-28T14:12:09.606Z,1.80
2023-03-28T14:14:55.674Z,1.70
2023-03-28T14:17:27.603Z,1.60
2023-03-28T14:20:08.100Z,1.70
2023-03-28T14:22:52.847Z,2.00
2023-03-28T14:25:27.623Z,1.60
2023-03-28T14:27:57.053Z,1.60
2023-03-28T14:30:32.195Z,2.20
2023-03-28T14:33:14.771Z,1.90
2023-03-28T14:35:45.669Z,1.30
2023-03-28T14:38:30.781Z,1.20
2023-03-28T14:41:21.355Z,1.50
2023-03-28T14:43:57.432Z,1.60
2023-03-28T14:46:29.298Z,1.80
2023-03-28T14:49:01.381Z,1.60
2023-03-28T14:51:39.859Z,1.50
2023-03-28T14:54:14.588Z,1.80
2023-03-28T14:56:48.110Z,1.80
2023-03-28T14:59:19.064Z,1.40
2023-03-28T15:01:49.970Z,1.40
2023-03-28T15:04:20.396Z,1.50
2023-03-28T15:06:57.311Z,1.90
2023-03-28T15:09:34.223Z,1.30
2023-03-28T15:12:09.211Z,1.40
2023-03-28T15:14:42.938Z,1.50
2023-03-28T15:17:19.575Z,1.50
2023-03-28T15:19:55.977Z,1.40
2023-03-28T15:22:30.014Z,1.80
2023-03-28T15:24:58.338Z,1.60
2023-03-28T15:27:34.380Z,2.00
2023-03-28T15:30:17.350Z,1.60
2023-03-28T15:32:45.805Z,1.90
2023-03-28T15:35:31.861Z,1.50
2023-03-28T15:38:02.984Z,1.90
2023-03-28T15:40:41.916Z,1.60
2023-03-28T15:43:39.105Z,1.50
2023-03-28T15:46:15.181Z,1.50
2023-03-28T15:48:43.604Z,1.70
2023-03-28T15:51:21.729Z,1.80
2023-03-28T15:53:51.612Z,1.40
2023-03-28T15:56:32.214Z,1.60
2023-03-28T15:59:03.960Z,1.50
2023-03-28T16:01:34.173Z,1.70
2023-03-28T16:04:25.198Z,1.90
2023-03-28T16:06:58.690Z,1.70
2023-03-28T16:09:26.690Z,1.70
2023-03-28T16:12:03.026Z,2.00
2023-03-28T16:14:31.261Z,1.80
2023-03-28T16:16:59.284Z,1.40
2023-03-28T16:19:34.356Z,1.60
2023-03-28T16:22:02.300Z,1.30
2023-03-28T16:24:30.731Z,1.90
2023-03-28T16:26:59.927Z,1.50
2023-03-28T16:29:28.391Z,1.20
2023-03-28T16:31:56.703Z,1.30
2023-03-28T16:34:24.822Z,1.60
2023-03-28T16:36:56.040Z,1.60
2023-03-28T16:39:24.919Z,1.60
2023-03-28T16:41:52.951Z,1.70
2023-03-28T16:44:21.202Z,1.70
2023-03-28T16:46:50.971Z,2.20
2023-03-28T16:49:19.133Z,2.20
2023-03-28T16:51:47.608Z,1.80
2023-03-28T16:54:15.702Z,2.10
2023-03-28T16:56:53.076Z,2.50
2023-03-28T16:59:23.723Z,2.20
2023-03-28T17:01:52.287Z,2.20
2023-03-28T17:04:22.512Z,2.40
2023-03-28T17:06:51.339Z,3.30
2023-03-28T17:09:19.447Z,2.20
2023-03-28T17:11:47.696Z,2.50
2023-03-28T17:14:15.801Z,2.40
2023-03-28T17:16:45.302Z,2.50
2023-03-28T17:19:14.262Z,2.30
2023-03-28T17:21:42.663Z,2.60
2023-03-28T17:24:11.686Z,2.90
2023-03-28T17:26:40.226Z,2.40
2023-03-28T17:29:10.108Z,2.40
2023-03-28T17:31:46.069Z,2.70
2023-03-28T17:34:14.771Z,2.80
2023-03-28T17:36:45.867Z,2.50
2023-03-28T17:39:13.835Z,3.00
2023-03-28T17:41:41.856Z,3.00
2023-03-28T17:44:10.099Z,3.10
2023-03-28T17:46:41.460Z,3.10
2023-03-28T17:49:09.752Z,2.90
2023-03-28T17:51:38.074Z,2.70
2023-03-28T17:54:12.031Z,3.60
2023-03-28T17:56:40.243Z,3.50
2023-03-28T17:59:08.268Z,3.80
2023-03-28T18:01:36.432Z,4.40
2023-03-28T18:04:04.519Z,4.30
2023-03-28T18:06:33.441Z,4.10
2023-03-28T18:09:01.405Z,4.50
2023-03-28T18:11:29.428Z,5.60
2023-03-28T18:13:58.814Z,5.10
2023-03-28T18:16:27.729Z,4.30
2023-03-28T18:18:57.402Z,4.70
2023-03-28T18:21:25.593Z,4.60
2023-03-28T18:23:54.552Z,6.00
2023-03-28T18:26:22.728Z,6.10
2023-03-28T18:28:50.865Z,6.40
2023-03-28T18:31:28.166Z,6.30
2023-03-28T18:33:57.524Z,7.70
2023-03-28T18:36:26.530Z,7.90
2023-03-28T18:38:56.288Z,6.40
2023-03-28T18:41:25.374Z,6.20
2023-03-28T18:46:35.712Z,6.00
2023-03-28T18:49:03.915Z,6.50
2023-03-28T18:51:31.974Z,6.40
2023-03-28T18:54:00.932Z,5.60
2023-03-28T18:56:29.212Z,5.30
2023-03-28T18:58:57.410Z,6.00
2023-03-28T19:01:25.540Z,6.30
2023-03-28T19:03:55.460Z,6.00
2023-03-28T19:06:23.565Z,5.70
2023-03-28T19:08:51.607Z,5.50
2023-03-28T19:11:20.302Z,4.70
2023-03-28T19:13:48.459Z,5.20
2023-03-28T19:16:19.372Z,5.40
2023-03-28T19:18:48.127Z,5.70
2023-03-28T19:21:17.185Z,5.70
2023-03-28T19:23:47.629Z,5.90
2023-03-28T19:26:18.354Z,5.70
2023-03-28T19:28:47.171Z,6.50
2023-03-28T19:31:15.774Z,5.90
2023-03-28T19:33:44.886Z,8.80
2023-03-28T19:36:13.197Z,12.30
2023-03-28T19:38:41.646Z,16.60
2023-03-28T19:41:20.000Z,21.30
2023-03-28T19:43:49.098Z,23.20
2023-03-28T19:46:33.197Z,21.90
2023-03-28T19:49:06.005Z,24.40
2023-03-28T19:51:34.978Z,23.50
2023-03-28T19:54:03.492Z,21.30
2023-03-28T19:56:31.974Z,28.00
2023-03-28T19:59:03.862Z,27.40
2023-03-28T20:01:31.999Z,27.60
2023-03-28T20:04:00.170Z,21.50
2023-03-28T20:06:28.354Z,16.20
2023-03-28T20:08:56.429Z,12.30
2023-03-28T20:11:24.730Z,11.90
2023-03-28T20:13:52.781Z,12.40
2023-03-28T20:16:20.860Z,11.20
2023-03-28T20:18:48.895Z,11.70
2023-03-28T20:21:16.986Z,10.60
2023-03-28T20:23:45.108Z,11.80
2023-03-28T20:26:25.940Z,14.20
2023-03-28T20:28:59.642Z,14.30
2023-03-28T20:31:28.653Z,14.00
2023-03-28T20:33:57.318Z,15.60
2023-03-28T20:36:25.222Z,14.10
2023-03-28T20:38:54.984Z,15.80
2023-03-28T20:41:24.154Z,15.50
2023-03-28T20:43:53.265Z,14.70
2023-03-28T20:46:21.991Z,17.70
2023-03-28T20:48:52.615Z,17.40
2023-03-28T20:51:22.878Z,15.40
2023-03-28T20:53:59.217Z,14.70
2023-03-28T20:56:30.954Z,13.50
2023-03-28T20:58:59.791Z,13.20
2023-03-28T21:01:33.110Z,13.40
2023-03-28T21:04:02.309Z,14.10
2023-03-28T21:06:34.693Z,12.80
2023-03-28T21:09:06.781Z,12.90
2023-03-28T21:11:36.844Z,12.70
2023-03-28T21:14:06.732Z,11.70
2023-03-28T21:16:37.518Z,11.00
2023-03-28T21:19:06.073Z,12.20
2023-03-28T21:21:34.871Z,11.90
2023-03-28T21:24:05.292Z,13.80
2023-03-28T21:26:33.695Z,10.90
2023-03-28T21:29:01.716Z,13.20
2023-03-28T21:31:30.929Z,11.90
2023-03-28T21:33:59.823Z,14.00
2023-03-28T21:36:28.495Z,15.30
2023-03-28T21:38:57.078Z,16.90
2023-03-28T21:41:27.691Z,17.30
2023-03-28T21:43:57.070Z,17.10
2023-03-28T21:46:25.385Z,18.00
2023-03-28T21:48:53.422Z,18.20
2023-03-28T21:51:21.586Z,19.50
2023-03-28T21:53:49.614Z,17.50
2023-03-28T21:56:17.723Z,15.90
2023-03-28T21:58:45.833Z,13.60
2023-03-28T22:01:14.973Z,14.10
2023-03-28T22:03:44.511Z,11.20
2023-03-28T22:06:14.311Z,11.10
2023-03-28T22:08:46.453Z,10.60
2023-03-28T22:11:20.849Z,10.40
2023-03-28T22:13:48.858Z,11.80
2023-03-28T22:16:16.974Z,14.70
2023-03-28T22:18:50.501Z,13.60
2023-03-28T22:21:18.583Z,13.70
2023-03-28T22:23:49.466Z,12.60
2023-03-28T22:26:18.136Z,14.10
2023-03-28T22:28:46.414Z,13.00
2023-03-28T22:31:17.093Z,15.00
2023-03-28T22:33:45.148Z,13.80
2023-03-28T22:36:13.690Z,16.00
2023-03-28T22:38:41.837Z,17.10
2023-03-28T22:41:10.253Z,16.50
2023-03-28T22:43:38.510Z,17.30
2023-03-28T22:46:06.730Z,15.60
2023-03-28T22:48:38.289Z,17.70
2023-03-28T22:51:11.828Z,18.10
2023-03-28T22:53:40.160Z,18.10
2023-03-28T22:56:08.934Z,19.70
2023-03-28T22:58:37.086Z,20.30
2023-03-28T23:01:05.923Z,21.20
2023-03-28T23:03:34.112Z,27.10
2023-03-28T23:06:06.277Z,24.90
2023-03-28T23:08:34.954Z,28.90
2023-03-28T23:11:03.408Z,27.80
2023-03-28T23:13:33.746Z,29.90
2023-03-28T23:16:02.831Z,32.70
2023-03-28T23:18:30.891Z,35.50
2023-03-28T23:20:59.037Z,31.80
2023-03-28T23:23:27.316Z,31.80
2023-03-28T23:25:55.281Z,35.20
2023-03-28T23:28:23.189Z,32.00
2023-03-28T23:30:51.101Z,31.70
2023-03-28T23:33:19.325Z,29.20
2023-03-28T23:35:48.512Z,26.80
2023-03-28T23:38:17.713Z,26.60
2023-03-28T23:40:46.295Z,26.00
2023-03-28T23:43:14.690Z,26.80
2023-03-28T23:45:43.507Z,26.80
2023-03-28T23:48:11.618Z,23.50
2023-03-28T23:50:39.490Z,24.30
2023-03-28T23:53:07.497Z,25.20
2023-03-28T23:55:35.727Z,23.20
2023-03-28T23:58:04.702Z,24.70
